Share

Seney, MI

Seney Heights (KMISENEY5) Elev 728 ft | 46.35 °N, 85.96 °W | Change Station

Current weather conditions updated 14 minutes ago

Overcast
Overcast
39.6 °F
Feels Like 35 °F
N
6.7
Wind Variable Wind from South
Sunrise 6:48 AM
Sunset 8:38 PM
Moon Waning Gibbous

Today is forecast to be Warmer than yesterday.

Pressure 30.13 in
Visibility 7.0 miles
Clouds Mostly Cloudy 2400 ft
Overcast 4200 ft
Windchill 35 °F
Dew Point 38 °F
Humidity 94%
Rainfall 0.40 in
Snow Depth Not available.
UV 2 out of 16
Pollen 7.60 out of 12
Ozone Good
PM2.5 Good
Flu Activity Sporadic
METAR KERY 201535Z AUTO 20015G18KT 7SM BKN024 OVC042 03/02 A3013 RMK AO2 T00300022

More Conditions Fewer Conditions

Pressure 30.13 in
Visibility 7.0 miles
Clouds Mostly Cloudy 2400 ft
Overcast 4200 ft
Windchill 35 °F
Dew Point 38 °F
Humidity 94%
Rainfall 0.40 in
Snow Depth Not available.
UV 2 out of 16
Pollen 7.60 out of 12
Ozone Good
PM2.5 Good
Flu Activity Sporadic
METAR KERY 201535Z AUTO 20015G18KT 7SM BKN024 OVC042 03/02 A3013 RMK AO2 T00300022

More Conditions Fewer Conditions

10-Day Weather Forecast

Almanac

Astronomy

Apr. 20, 2014 Rise Set
Actual Time 6:48 AM EDT 8:38 PM EDT
Civil Twilight 6:16 AM EDT 9:10 PM EDT
Nautical Twilight 5:37 AM EDT 9:50 PM EDT
Astronomical Twilight 4:54 AM EDT 10:33 PM EDT
Moon 1:24 AM EDT 11:01 AM EDT
Length of Visible Light 14h 54m
Length of Day
13h 50m
Tomorrow will be 3m 5s longer.
Waning Gibbous, 69% of the Moon is Illuminated
Today
Waning Gibbous
Apr 22
Last Quarter
Apr 29
New
May 6
First Quarter
May 14
Full

Today's Extremes

State Highs State Lows

Community

  • Easter Sunrise
    Easter Sunrise
  • Easter Eve - The Promise - Lake Palestine, TX
    Easter Eve - The Promise - Lake Palestine, TX
  • Happy Easter
    Happy Easter
  • EARLY FOGGY MORNING
    EARLY FOGGY MORNING
  • Easter Greetings
    Easter Greetings

WunderPhotos

Upload Photos

1,703,259 photos uploaded!

WunderBlogs® & News

Nearby

Air Quality

  Air Quality AQ Index Pollutant
Yesterday Good
PM2.5
Current Good
PM2.5
Current Good
OZONE
Sunday Good
PM2.5
Monday Good
PM2.5

Snow Depth

Station Depth Elevation
No new snow has been reported.

Coastal Water Temperatures

Place Temperature
No Stations Reporting

Earthquake Activity

City Distance Mag. Time & Date
No recent earthquake activity has been reported nearby.
Minimum magnitude displayed is 2.5.

Nearby Weather Stations

Station Location Temp. Windchill Dew Point Humidity Wind Precip. Elev Updated Type
Seney Heights, Seney, MI 39.6 °F 35 °F 38 °F 94% South  at  6.7 mph - / hr 728 ft 11:38 AM EDT Normal
RAWS SENEY MI, Germfask, MI 39 °F 31 °F 36 °F 90% SSW  at  14 mph 0.00 in / hr 899 ft 11:03 AM EDT MADIS
RAWS SPINCICH LAKE MI, McMillan, MI 39 °F 33 °F 37 °F 91% SW  at  9 mph 0.00 in / hr 896 ft 11:01 AM EDT MADIS

Show More Stations Show Fewer Stations

What do you think?

We're not finished. Please let us know what you like, what you don't like, and what you are still missing.